Glen Cove, New York
Current Conditions -  °F | °C
As of 6:51 AM on Friday 31 Oct 2014 (Local Time) from KLGA Reporting Station
Broken Clouds Broken Clouds  
Wind Chill: 41°   Ceiling: 4800
Heat Index: 45°   Visibility: 10mi
Dew Point: 33°   Wind: 7mph
Humidity: 63%   Direction: 360°N
Pressure: 30.02"   Gusts: NA
Location:  40.86°N, 73.63°W
Report Text: KLGA 311051Z 36006KT 10SM BKN048 07/01 A3002 RMK AO2 SLP164 T00720006
Loading
Personal Weather Stations






























Interactive Weather Map
Tropical Storm Tracking
New forecast layout! Learn more

10-Day Weather Forecast

Advertisements
Track Severe Weather on mobile